Mc Allister, Montana
Current Conditions -  °F | °C
As of 6:56 PM on Friday 19 Dec 2014 (Local Time) from KBZN Reporting Station
Overcast Overcast  
Wind Chill: 28°   Ceiling: 4700
Heat Index: 36°   Visibility: 10mi
Dew Point: 30°   Wind: 10mph
Humidity: 79%   Direction: 80°E
Pressure: 29.93"   Gusts: NA
Location:  45.4445°N, 111.731°W
Report Text: KBZN 200156Z 08009KT 10SM OVC047 02/M01 A2993 RMK AO2 SNB17E33 SLP168 P0000 T00221011
Loading
Personal Weather Stations






























Interactive Weather Map New forecast layout! Learn more

10-Day Weather Forecast

Advertisements
Track Severe Weather on mobile